sensor_id;sensor_type;location;lat;lon;timestamp;pressure;altitude;pressure_sealevel;temperature
76895;BMP280;65855;42.030;13.078;2023-10-13T00:01:23;94357.34;;;11.78
76895;BMP280;65855;42.030;13.078;2023-10-13T00:03:49;94362.06;;;11.56
76895;BMP280;65855;42.030;13.078;2023-10-13T00:06:16;94371.53;;;11.31
76895;BMP280;65855;42.030;13.078;2023-10-13T00:08:43;94366.97;;;10.96
76895;BMP280;65855;42.030;13.078;2023-10-13T00:11:14;94373.19;;;10.56
76895;BMP280;65855;42.030;13.078;2023-10-13T00:13:41;94372.25;;;10.32
76895;BMP280;65855;42.030;13.078;2023-10-13T00:16:20;94368.75;;;10.13
76895;BMP280;65855;42.030;13.078;2023-10-13T00:18:52;94369.28;;;10.06
76895;BMP280;65855;42.030;13.078;2023-10-13T00:21:23;94361.72;;;9.76
76895;BMP280;65855;42.030;13.078;2023-10-13T00:23:58;94365.28;;;9.85
76895;BMP280;65855;42.030;13.078;2023-10-13T00:26:29;94370.25;;;10.14
76895;BMP280;65855;42.030;13.078;2023-10-13T00:28:59;94360.38;;;11.00
76895;BMP280;65855;42.030;13.078;2023-10-13T00:31:42;94368.16;;;11.83
76895;BMP280;65855;42.030;13.078;2023-10-13T00:34:12;94362.69;;;11.34
76895;BMP280;65855;42.030;13.078;2023-10-13T00:36:44;94360.53;;;11.55
76895;BMP280;65855;42.030;13.078;2023-10-13T00:39:14;94366.88;;;11.10
76895;BMP280;65855;42.030;13.078;2023-10-13T00:41:43;94365.09;;;10.54
76895;BMP280;65855;42.030;13.078;2023-10-13T00:44:23;94367.25;;;10.07
76895;BMP280;65855;42.030;13.078;2023-10-13T00:47:04;94362.16;;;10.22
76895;BMP280;65855;42.030;13.078;2023-10-13T00:49:33;94348.59;;;11.28
76895;BMP280;65855;42.030;13.078;2023-10-13T00:52:08;94344.91;;;11.81
76895;BMP280;65855;42.030;13.078;2023-10-13T00:54:36;94334.00;;;11.91
76895;BMP280;65855;42.030;13.078;2023-10-13T00:57:03;94332.47;;;12.18
76895;BMP280;65855;42.030;13.078;2023-10-13T00:59:52;94328.41;;;11.94
76895;BMP280;65855;42.030;13.078;2023-10-13T01:02:19;94330.38;;;12.24
76895;BMP280;65855;42.030;13.078;2023-10-13T01:05:07;94324.06;;;12.22
76895;BMP280;65855;42.030;13.078;2023-10-13T01:07:35;94321.44;;;12.32
76895;BMP280;65855;42.030;13.078;2023-10-13T01:10:03;94325.97;;;12.35
76895;BMP280;65855;42.030;13.078;2023-10-13T01:12:30;94320.03;;;12.21
76895;BMP280;65855;42.030;13.078;2023-10-13T01:14:57;94317.19;;;12.04
76895;BMP280;65855;42.030;13.078;2023-10-13T01:17:22;94310.56;;;12.31
76895;BMP280;65855;42.030;13.078;2023-10-13T01:19:49;94308.59;;;12.47
76895;BMP280;65855;42.030;13.078;2023-10-13T01:22:14;94316.16;;;12.28
76895;BMP280;65855;42.030;13.078;2023-10-13T01:24:40;94318.00;;;12.23
76895;BMP280;65855;42.030;13.078;2023-10-13T01:27:07;94318.50;;;12.66
76895;BMP280;65855;42.030;13.078;2023-10-13T01:29:50;94320.25;;;12.71
76895;BMP280;65855;42.030;13.078;2023-10-13T01:32:22;94314.97;;;12.67
76895;BMP280;65855;42.030;13.078;2023-10-13T01:34:48;94331.28;;;12.56
76895;BMP280;65855;42.030;13.078;2023-10-13T01:37:15;94325.72;;;12.08
76895;BMP280;65855;42.030;13.078;2023-10-13T01:39:44;94339.50;;;11.32
76895;BMP280;65855;42.030;13.078;2023-10-13T01:42:12;94335.94;;;10.90
76895;BMP280;65855;42.030;13.078;2023-10-13T01:44:44;94335.03;;;10.72
76895;BMP280;65855;42.030;13.078;2023-10-13T01:47:10;94330.34;;;10.41
76895;BMP280;65855;42.030;13.078;2023-10-13T01:49:35;94336.22;;;10.27
76895;BMP280;65855;42.030;13.078;2023-10-13T01:52:19;94326.97;;;9.73
76895;BMP280;65855;42.030;13.078;2023-10-13T01:54:45;94329.78;;;9.33
76895;BMP280;65855;42.030;13.078;2023-10-13T01:57:11;94335.03;;;9.26
76895;BMP280;65855;42.030;13.078;2023-10-13T01:59:46;94323.69;;;9.38
76895;BMP280;65855;42.030;13.078;2023-10-13T02:02:14;94318.41;;;9.64
76895;BMP280;65855;42.030;13.078;2023-10-13T02:04:40;94317.16;;;11.06
76895;BMP280;65855;42.030;13.078;2023-10-13T02:07:20;94318.56;;;10.89
76895;BMP280;65855;42.030;13.078;2023-10-13T02:09:45;94315.88;;;10.66
76895;BMP280;65855;42.030;13.078;2023-10-13T02:12:12;94317.44;;;11.04
76895;BMP280;65855;42.030;13.078;2023-10-13T02:14:39;94315.94;;;11.46
76895;BMP280;65855;42.030;13.078;2023-10-13T02:17:07;94310.06;;;11.83
76895;BMP280;65855;42.030;13.078;2023-10-13T02:19:42;94317.75;;;11.41
76895;BMP280;65855;42.030;13.078;2023-10-13T02:22:12;94329.34;;;10.47
76895;BMP280;65855;42.030;13.078;2023-10-13T02:24:49;94331.47;;;10.10
76895;BMP280;65855;42.030;13.078;2023-10-13T02:27:17;94331.47;;;10.06
76895;BMP280;65855;42.030;13.078;2023-10-13T02:29:42;94326.47;;;9.76
76895;BMP280;65855;42.030;13.078;2023-10-13T02:32:11;94319.41;;;9.73
76895;BMP280;65855;42.030;13.078;2023-10-13T02:34:46;94322.69;;;9.64
76895;BMP280;65855;42.030;13.078;2023-10-13T02:37:12;94320.94;;;9.59
76895;BMP280;65855;42.030;13.078;2023-10-13T02:39:39;94327.97;;;9.62
76895;BMP280;65855;42.030;13.078;2023-10-13T02:42:08;94325.97;;;9.30
76895;BMP280;65855;42.030;13.078;2023-10-13T02:44:36;94326.50;;;9.52
76895;BMP280;65855;42.030;13.078;2023-10-13T02:47:05;94321.44;;;9.32
76895;BMP280;65855;42.030;13.078;2023-10-13T02:49:38;94340.09;;;9.26
76895;BMP280;65855;42.030;13.078;2023-10-13T02:52:11;94330.50;;;9.23
76895;BMP280;65855;42.030;13.078;2023-10-13T02:54:38;94333.50;;;9.25
76895;BMP280;65855;42.030;13.078;2023-10-13T02:57:15;94335.72;;;8.92
76895;BMP280;65855;42.030;13.078;2023-10-13T02:59:42;94330.63;;;8.58
76895;BMP280;65855;42.030;13.078;2023-10-13T03:02:16;94340.69;;;8.63
76895;BMP280;65855;42.030;13.078;2023-10-13T03:04:52;94328.16;;;8.78
76895;BMP280;65855;42.030;13.078;2023-10-13T03:07:24;94329.41;;;8.75
76895;BMP280;65855;42.030;13.078;2023-10-13T03:09:54;94331.19;;;8.75
76895;BMP280;65855;42.030;13.078;2023-10-13T03:12:23;94324.66;;;8.84
76895;BMP280;65855;42.030;13.078;2023-10-13T03:14:50;94319.34;;;8.80
76895;BMP280;65855;42.030;13.078;2023-10-13T03:17:34;94317.19;;;8.33
76895;BMP280;65855;42.030;13.078;2023-10-13T03:19:59;94316.19;;;8.34
76895;BMP280;65855;42.030;13.078;2023-10-13T03:22:25;94322.13;;;8.14
76895;BMP280;65855;42.030;13.078;2023-10-13T03:24:58;94318.41;;;9.06
76895;BMP280;65855;42.030;13.078;2023-10-13T03:27:31;94317.16;;;9.37
76895;BMP280;65855;42.030;13.078;2023-10-13T03:30:15;94314.63;;;9.13
76895;BMP280;65855;42.030;13.078;2023-10-13T03:32:42;94314.38;;;9.98
76895;BMP280;65855;42.030;13.078;2023-10-13T03:35:26;94310.78;;;10.80
76895;BMP280;65855;42.030;13.078;2023-10-13T03:38:03;94303.88;;;11.38
76895;BMP280;65855;42.030;13.078;2023-10-13T03:40:28;94307.53;;;11.51
76895;BMP280;65855;42.030;13.078;2023-10-13T03:42:58;94311.31;;;11.20
76895;BMP280;65855;42.030;13.078;2023-10-13T03:45:24;94318.28;;;10.43
76895;BMP280;65855;42.030;13.078;2023-10-13T03:47:51;94314.59;;;10.01
76895;BMP280;65855;42.030;13.078;2023-10-13T03:50:17;94315.63;;;9.81
76895;BMP280;65855;42.030;13.078;2023-10-13T03:52:55;94315.63;;;9.76
76895;BMP280;65855;42.030;13.078;2023-10-13T03:55:26;94317.19;;;9.47
76895;BMP280;65855;42.030;13.078;2023-10-13T03:57:55;94310.38;;;9.43
76895;BMP280;65855;42.030;13.078;2023-10-13T04:00:23;94311.88;;;9.44
76895;BMP280;65855;42.030;13.078;2023-10-13T04:02:51;94316.88;;;8.95
76895;BMP280;65855;42.030;13.078;2023-10-13T04:05:34;94309.88;;;9.21
76895;BMP280;65855;42.030;13.078;2023-10-13T04:08:09;94311.91;;;9.34
76895;BMP280;65855;42.030;13.078;2023-10-13T04:10:53;94314.88;;;9.70
76895;BMP280;65855;42.030;13.078;2023-10-13T04:13:20;94319.41;;;9.63
76895;BMP280;65855;42.030;13.078;2023-10-13T04:16:06;94322.94;;;9.18
76895;BMP280;65855;42.030;13.078;2023-10-13T04:18:47;94313.88;;;9.32
76895;BMP280;65855;42.030;13.078;2023-10-13T04:21:25;94325.72;;;9.17
76895;BMP280;65855;42.030;13.078;2023-10-13T04:24:20;94326.22;;;9.19
76895;BMP280;65855;42.030;13.078;2023-10-13T04:27:03;94322.19;;;9.42
76895;BMP280;65855;42.030;13.078;2023-10-13T04:29:40;94326.25;;;9.53
76895;BMP280;65855;42.030;13.078;2023-10-13T04:32:21;94326.97;;;9.44
76895;BMP280;65855;42.030;13.078;2023-10-13T04:35:04;94324.97;;;9.21
76895;BMP280;65855;42.030;13.078;2023-10-13T04:37:38;94325.44;;;8.89
76895;BMP280;65855;42.030;13.078;2023-10-13T04:40:23;94330.69;;;8.92
76895;BMP280;65855;42.030;13.078;2023-10-13T04:42:53;94332.50;;;9.11
76895;BMP280;65855;42.030;13.078;2023-10-13T04:45:24;94332.47;;;9.07
76895;BMP280;65855;42.030;13.078;2023-10-13T04:47:57;94332.75;;;9.25
76895;BMP280;65855;42.030;13.078;2023-10-13T04:50:38;94324.47;;;9.93
76895;BMP280;65855;42.030;13.078;2023-10-13T04:53:17;94320.81;;;10.38
76895;BMP280;65855;42.030;13.078;2023-10-13T04:55:58;94320.47;;;11.06
76895;BMP280;65855;42.030;13.078;2023-10-13T04:58:30;94319.78;;;11.34
76895;BMP280;65855;42.030;13.078;2023-10-13T05:01:04;94326.38;;;11.30
76895;BMP280;65855;42.030;13.078;2023-10-13T05:03:51;94320.69;;;11.52
76895;BMP280;65855;42.030;13.078;2023-10-13T05:06:35;94320.75;;;11.43
76895;BMP280;65855;42.030;13.078;2023-10-13T05:09:06;94320.44;;;11.49
76895;BMP280;65855;42.030;13.078;2023-10-13T05:11:50;94330.94;;;11.23
76895;BMP280;65855;42.030;13.078;2023-10-13T05:14:34;94326.19;;;11.59
76895;BMP280;65855;42.030;13.078;2023-10-13T05:17:18;94335.72;;;11.25
76895;BMP280;65855;42.030;13.078;2023-10-13T05:20:03;94343.38;;;10.67
76895;BMP280;65855;42.030;13.078;2023-10-13T05:22:47;94342.00;;;10.27
76895;BMP280;65855;42.030;13.078;2023-10-13T05:25:35;94344.56;;;10.03
76895;BMP280;65855;42.030;13.078;2023-10-13T05:28:19;94358.72;;;9.84
76895;BMP280;65855;42.030;13.078;2023-10-13T05:31:03;94360.97;;;9.51
76895;BMP280;65855;42.030;13.078;2023-10-13T05:33:47;94369.19;;;8.88
76895;BMP280;65855;42.030;13.078;2023-10-13T05:36:31;94378.16;;;8.74
76895;BMP280;65855;42.030;13.078;2023-10-13T05:39:15;94381.91;;;8.62
76895;BMP280;65855;42.030;13.078;2023-10-13T05:41:59;94382.59;;;8.53
76895;BMP280;65855;42.030;13.078;2023-10-13T05:44:43;94396.53;;;8.75
76895;BMP280;65855;42.030;13.078;2023-10-13T05:47:27;94397.28;;;8.70
76895;BMP280;65855;42.030;13.078;2023-10-13T05:50:21;94400.69;;;8.45
76895;BMP280;65855;42.030;13.078;2023-10-13T05:52:47;94403.66;;;8.37
76895;BMP280;65855;42.030;13.078;2023-10-13T05:55:24;94404.94;;;8.44
76895;BMP280;65855;42.030;13.078;2023-10-13T05:58:08;94414.34;;;8.63
76895;BMP280;65855;42.030;13.078;2023-10-13T06:00:53;94409.16;;;8.89
76895;BMP280;65855;42.030;13.078;2023-10-13T06:03:37;94411.41;;;8.91
76895;BMP280;65855;42.030;13.078;2023-10-13T06:06:21;94412.31;;;9.50
76895;BMP280;65855;42.030;13.078;2023-10-13T06:09:05;94412.09;;;10.06
76895;BMP280;65855;42.030;13.078;2023-10-13T06:11:49;94415.47;;;10.73
76895;BMP280;65855;42.030;13.078;2023-10-13T06:14:33;94411.66;;;11.38
76895;BMP280;65855;42.030;13.078;2023-10-13T06:17:17;94410.28;;;11.93
76895;BMP280;65855;42.030;13.078;2023-10-13T06:20:01;94414.91;;;12.14
76895;BMP280;65855;42.030;13.078;2023-10-13T06:22:48;94408.88;;;12.61
76895;BMP280;65855;42.030;13.078;2023-10-13T06:25:33;94406.03;;;13.68
76895;BMP280;65855;42.030;13.078;2023-10-13T06:28:16;94400.28;;;14.12
76895;BMP280;65855;42.030;13.078;2023-10-13T06:31:03;94403.66;;;14.65
76895;BMP280;65855;42.030;13.078;2023-10-13T06:33:31;94410.16;;;15.11
76895;BMP280;65855;42.030;13.078;2023-10-13T06:35:59;94414.78;;;15.57
76895;BMP280;65855;42.030;13.078;2023-10-13T06:38:25;94415.09;;;15.77
76895;BMP280;65855;42.030;13.078;2023-10-13T06:40:56;94414.50;;;15.80
76895;BMP280;65855;42.030;13.078;2023-10-13T06:43:22;94417.22;;;16.05
76895;BMP280;65855;42.030;13.078;2023-10-13T06:45:49;94412.78;;;16.32
76895;BMP280;65855;42.030;13.078;2023-10-13T06:48:37;94412.88;;;16.48
76895;BMP280;65855;42.030;13.078;2023-10-13T06:51:05;94412.03;;;16.61
76895;BMP280;65855;42.030;13.078;2023-10-13T06:53:51;94414.56;;;16.99
76895;BMP280;65855;42.030;13.078;2023-10-13T06:56:21;94416.06;;;16.92
76895;BMP280;65855;42.030;13.078;2023-10-13T06:58:48;94413.00;;;17.11
76895;BMP280;65855;42.030;13.078;2023-10-13T07:01:14;94419.47;;;17.42
76895;BMP280;65855;42.030;13.078;2023-10-13T07:03:48;94416.66;;;16.59
76895;BMP280;65855;42.030;13.078;2023-10-13T07:06:21;94409.38;;;16.66
76895;BMP280;65855;42.030;13.078;2023-10-13T07:08:47;94419.09;;;16.12
76895;BMP280;65855;42.030;13.078;2023-10-13T07:11:25;94406.19;;;16.31
76895;BMP280;65855;42.030;13.078;2023-10-13T07:14:04;94415.81;;;17.10
76895;BMP280;65855;42.030;13.078;2023-10-13T07:17:03;94411.09;;;17.58
76895;BMP280;65855;42.030;13.078;2023-10-13T07:19:30;94411.94;;;18.54
76895;BMP280;65855;42.030;13.078;2023-10-13T07:22:00;94411.66;;;19.21
76895;BMP280;65855;42.030;13.078;2023-10-13T07:24:44;94415.84;;;19.73
76895;BMP280;65855;42.030;13.078;2023-10-13T07:27:16;94421.31;;;20.04
76895;BMP280;65855;42.030;13.078;2023-10-13T07:29:52;94418.69;;;20.12
76895;BMP280;65855;42.030;13.078;2023-10-13T07:32:38;94423.81;;;20.12
76895;BMP280;65855;42.030;13.078;2023-10-13T07:35:13;94422.97;;;19.88
76895;BMP280;65855;42.030;13.078;2023-10-13T07:37:41;94423.81;;;20.44
76895;BMP280;65855;42.030;13.078;2023-10-13T07:40:10;94417.28;;;20.67
76895;BMP280;65855;42.030;13.078;2023-10-13T07:42:51;94415.78;;;20.66
76895;BMP280;65855;42.030;13.078;2023-10-13T07:45:17;94420.31;;;21.27
76895;BMP280;65855;42.030;13.078;2023-10-13T07:47:46;94421.81;;;21.05
76895;BMP280;65855;42.030;13.078;2023-10-13T07:50:12;94426.28;;;21.55
76895;BMP280;65855;42.030;13.078;2023-10-13T07:52:38;94423.84;;;21.23
76895;BMP280;65855;42.030;13.078;2023-10-13T07:55:07;94415.47;;;21.14
76895;BMP280;65855;42.030;13.078;2023-10-13T07:57:46;94424.41;;;19.01
76895;BMP280;65855;42.030;13.078;2023-10-13T08:00:25;94420.22;;;19.73
76895;BMP280;65855;42.030;13.078;2023-10-13T08:03:01;94424.94;;;18.16
76895;BMP280;65855;42.030;13.078;2023-10-13T08:05:35;94417.75;;;19.08
76895;BMP280;65855;42.030;13.078;2023-10-13T08:08:19;94413.53;;;19.12
76895;BMP280;65855;42.030;13.078;2023-10-13T08:10:46;94416.13;;;20.12
76895;BMP280;65855;42.030;13.078;2023-10-13T08:13:12;94413.47;;;19.20
76895;BMP280;65855;42.030;13.078;2023-10-13T08:15:43;94413.97;;;21.01
76895;BMP280;65855;42.030;13.078;2023-10-13T08:18:15;94412.22;;;21.76
76895;BMP280;65855;42.030;13.078;2023-10-13T08:21:05;94405.09;;;22.65
76895;BMP280;65855;42.030;13.078;2023-10-13T08:23:41;94408.34;;;21.43
76895;BMP280;65855;42.030;13.078;2023-10-13T08:26:18;94408.06;;;20.54
76895;BMP280;65855;42.030;13.078;2023-10-13T08:29:03;94424.72;;;21.77
76895;BMP280;65855;42.030;13.078;2023-10-13T08:31:51;94412.09;;;23.11
76895;BMP280;65855;42.030;13.078;2023-10-13T08:34:32;94413.41;;;23.69
76895;BMP280;65855;42.030;13.078;2023-10-13T08:37:07;94411.19;;;24.42
76895;BMP280;65855;42.030;13.078;2023-10-13T08:39:54;94410.00;;;24.99
76895;BMP280;65855;42.030;13.078;2023-10-13T08:42:32;94401.47;;;25.20
76895;BMP280;65855;42.030;13.078;2023-10-13T08:45:07;94400.00;;;25.45
76895;BMP280;65855;42.030;13.078;2023-10-13T08:47:52;94397.63;;;24.85
76895;BMP280;65855;42.030;13.078;2023-10-13T08:50:51;94400.25;;;25.36
76895;BMP280;65855;42.030;13.078;2023-10-13T08:53:25;94403.06;;;25.79
76895;BMP280;65855;42.030;13.078;2023-10-13T08:56:00;94405.13;;;25.96
76895;BMP280;65855;42.030;13.078;2023-10-13T08:58:57;94396.63;;;26.24
76895;BMP280;65855;42.030;13.078;2023-10-13T09:01:33;94403.72;;;26.34
76895;BMP280;65855;42.030;13.078;2023-10-13T09:04:14;94400.38;;;26.66
76895;BMP280;65855;42.030;13.078;2023-10-13T09:07:02;94389.94;;;26.95
76895;BMP280;65855;42.030;13.078;2023-10-13T09:12:27;94390.72;;;28.32
76895;BMP280;65855;42.030;13.078;2023-10-13T09:15:06;94395.00;;;27.27
76895;BMP280;65855;42.030;13.078;2023-10-13T09:20:12;94396.03;;;27.72
76895;BMP280;65855;42.030;13.078;2023-10-13T09:22:52;94387.28;;;27.34
76895;BMP280;65855;42.030;13.078;2023-10-13T09:25:28;94392.91;;;26.57
76895;BMP280;65855;42.030;13.078;2023-10-13T09:28:10;94398.41;;;28.08
76895;BMP280;65855;42.030;13.078;2023-10-13T09:30:53;94393.84;;;28.96
76895;BMP280;65855;42.030;13.078;2023-10-13T09:33:29;94386.69;;;29.78
76895;BMP280;65855;42.030;13.078;2023-10-13T09:36:01;94386.75;;;29.54
76895;BMP280;65855;42.030;13.078;2023-10-13T09:38:32;94390.34;;;29.94
76895;BMP280;65855;42.030;13.078;2023-10-13T09:40:58;94388.84;;;30.00
76895;BMP280;65855;42.030;13.078;2023-10-13T09:43:27;94387.47;;;29.69
76895;BMP280;65855;42.030;13.078;2023-10-13T09:45:59;94388.06;;;30.17
76895;BMP280;65855;42.030;13.078;2023-10-13T09:48:32;94384.47;;;30.61
76895;BMP280;65855;42.030;13.078;2023-10-13T09:51:00;94380.78;;;30.59
76895;BMP280;65855;42.030;13.078;2023-10-13T09:53:27;94383.59;;;30.85
76895;BMP280;65855;42.030;13.078;2023-10-13T09:56:00;94383.78;;;30.57
76895;BMP280;65855;42.030;13.078;2023-10-13T09:58:41;94387.84;;;30.58
76895;BMP280;65855;42.030;13.078;2023-10-13T10:01:14;94380.16;;;31.41
76895;BMP280;65855;42.030;13.078;2023-10-13T10:03:50;94377.97;;;31.36
76895;BMP280;65855;42.030;13.078;2023-10-13T10:06:22;94376.34;;;31.09
76895;BMP280;65855;42.030;13.078;2023-10-13T10:09:04;94380.31;;;31.67
76895;BMP280;65855;42.030;13.078;2023-10-13T10:14:16;94376.47;;;31.75
76895;BMP280;65855;42.030;13.078;2023-10-13T10:19:25;94371.94;;;32.15
76895;BMP280;65855;42.030;13.078;2023-10-13T10:22:01;94371.69;;;33.13
76895;BMP280;65855;42.030;13.078;2023-10-13T10:24:30;94373.69;;;32.25
76895;BMP280;65855;42.030;13.078;2023-10-13T10:26:56;94368.88;;;33.01
76895;BMP280;65855;42.030;13.078;2023-10-13T10:29:21;94362.34;;;33.35
76895;BMP280;65855;42.030;13.078;2023-10-13T10:31:48;94362.53;;;33.44
76895;BMP280;65855;42.030;13.078;2023-10-13T10:34:14;94361.94;;;33.59
76895;BMP280;65855;42.030;13.078;2023-10-13T10:36:46;94370.81;;;34.03
76895;BMP280;65855;42.030;13.078;2023-10-13T10:39:12;94363.75;;;33.81
76895;BMP280;65855;42.030;13.078;2023-10-13T10:41:37;94359.41;;;33.52
76895;BMP280;65855;42.030;13.078;2023-10-13T10:44:17;94357.47;;;33.56
76895;BMP280;65855;42.030;13.078;2023-10-13T10:47:09;94359.81;;;34.11
76895;BMP280;65855;42.030;13.078;2023-10-13T10:49:38;94351.47;;;35.02
76895;BMP280;65855;42.030;13.078;2023-10-13T10:52:03;94358.38;;;32.79
76895;BMP280;65855;42.030;13.078;2023-10-13T10:54:33;94344.84;;;33.74
76895;BMP280;65855;42.030;13.078;2023-10-13T10:56:59;94349.94;;;34.19
76895;BMP280;65855;42.030;13.078;2023-10-13T10:59:37;94352.41;;;34.26
76895;BMP280;65855;42.030;13.078;2023-10-13T11:02:03;94349.53;;;34.55
76895;BMP280;65855;42.030;13.078;2023-10-13T11:04:28;94347.63;;;35.06
76895;BMP280;65855;42.030;13.078;2023-10-13T11:06:59;94348.56;;;35.28
76895;BMP280;65855;42.030;13.078;2023-10-13T11:11:51;94334.44;;;35.53
76895;BMP280;65855;42.030;13.078;2023-10-13T11:14:21;94336.50;;;36.02
76895;BMP280;65855;42.030;13.078;2023-10-13T11:16:49;94339.50;;;36.28
76895;BMP280;65855;42.030;13.078;2023-10-13T11:19:35;94334.06;;;36.47
76895;BMP280;65855;42.030;13.078;2023-10-13T11:24:42;94333.59;;;36.24
76895;BMP280;65855;42.030;13.078;2023-10-13T11:27:16;94339.47;;;35.16
76895;BMP280;65855;42.030;13.078;2023-10-13T11:29:46;94333.59;;;34.31
76895;BMP280;65855;42.030;13.078;2023-10-13T11:32:17;94332.38;;;33.39
76895;BMP280;65855;42.030;13.078;2023-10-13T11:34:45;94328.50;;;34.74
76895;BMP280;65855;42.030;13.078;2023-10-13T11:37:17;94323.41;;;33.98
76895;BMP280;65855;42.030;13.078;2023-10-13T11:40:03;94325.53;;;33.45
76895;BMP280;65855;42.030;13.078;2023-10-13T11:42:35;94314.38;;;35.31
76895;BMP280;65855;42.030;13.078;2023-10-13T11:45:01;94324.31;;;36.20
76895;BMP280;65855;42.030;13.078;2023-10-13T11:47:47;94315.03;;;36.55
76895;BMP280;65855;42.030;13.078;2023-10-13T11:50:25;94310.03;;;33.54
76895;BMP280;65855;42.030;13.078;2023-10-13T11:53:11;94309.91;;;33.99
76895;BMP280;65855;42.030;13.078;2023-10-13T11:55:37;94312.50;;;30.88
76895;BMP280;65855;42.030;13.078;2023-10-13T11:58:03;94306.16;;;32.98
76895;BMP280;65855;42.030;13.078;2023-10-13T12:00:31;94298.78;;;35.68
76895;BMP280;65855;42.030;13.078;2023-10-13T12:03:15;94300.13;;;37.77
76895;BMP280;65855;42.030;13.078;2023-10-13T12:05:59;94301.00;;;36.71
76895;BMP280;65855;42.030;13.078;2023-10-13T12:08:43;94299.66;;;36.78
76895;BMP280;65855;42.030;13.078;2023-10-13T12:11:15;94293.91;;;37.50
76895;BMP280;65855;42.030;13.078;2023-10-13T12:13:56;94292.31;;;35.29
76895;BMP280;65855;42.030;13.078;2023-10-13T12:16:22;94287.63;;;35.92
76895;BMP280;65855;42.030;13.078;2023-10-13T12:18:48;94286.56;;;37.45
76895;BMP280;65855;42.030;13.078;2023-10-13T12:21:20;94293.06;;;35.85
76895;BMP280;65855;42.030;13.078;2023-10-13T12:23:47;94290.41;;;33.24
76895;BMP280;65855;42.030;13.078;2023-10-13T12:26:12;94295.09;;;34.12
76895;BMP280;65855;42.030;13.078;2023-10-13T12:28:47;94282.88;;;34.56
76895;BMP280;65855;42.030;13.078;2023-10-13T12:31:17;94284.31;;;36.16
76895;BMP280;65855;42.030;13.078;2023-10-13T12:33:51;94286.41;;;35.80
76895;BMP280;65855;42.030;13.078;2023-10-13T12:36:17;94276.94;;;38.23
76895;BMP280;65855;42.030;13.078;2023-10-13T12:38:45;94272.16;;;38.30
76895;BMP280;65855;42.030;13.078;2023-10-13T12:41:20;94269.44;;;36.95
76895;BMP280;65855;42.030;13.078;2023-10-13T12:44:05;94275.66;;;35.91
76895;BMP280;65855;42.030;13.078;2023-10-13T12:46:50;94276.66;;;35.81
76895;BMP280;65855;42.030;13.078;2023-10-13T12:49:34;94271.22;;;34.73
76895;BMP280;65855;42.030;13.078;2023-10-13T12:52:13;94277.38;;;34.66
76895;BMP280;65855;42.030;13.078;2023-10-13T12:54:45;94271.34;;;36.33
76895;BMP280;65855;42.030;13.078;2023-10-13T12:57:31;94266.66;;;37.11
76895;BMP280;65855;42.030;13.078;2023-10-13T12:59:57;94265.38;;;34.18
76895;BMP280;65855;42.030;13.078;2023-10-13T13:02:25;94260.25;;;34.46
76895;BMP280;65855;42.030;13.078;2023-10-13T13:04:54;94261.63;;;34.00
76895;BMP280;65855;42.030;13.078;2023-10-13T13:07:25;94271.47;;;32.75
76895;BMP280;65855;42.030;13.078;2023-10-13T13:09:55;94269.59;;;31.97
76895;BMP280;65855;42.030;13.078;2023-10-13T13:12:24;94277.69;;;32.06
76895;BMP280;65855;42.030;13.078;2023-10-13T13:14:50;94277.84;;;33.19
76895;BMP280;65855;42.030;13.078;2023-10-13T13:17:23;94276.34;;;33.56
76895;BMP280;65855;42.030;13.078;2023-10-13T13:19:48;94267.59;;;32.83
76895;BMP280;65855;42.030;13.078;2023-10-13T13:22:14;94270.63;;;31.77
76895;BMP280;65855;42.030;13.078;2023-10-13T13:24:40;94278.56;;;31.96
76895;BMP280;65855;42.030;13.078;2023-10-13T13:27:15;94283.66;;;33.04
76895;BMP280;65855;42.030;13.078;2023-10-13T13:29:45;94270.00;;;33.57
76895;BMP280;65855;42.030;13.078;2023-10-13T13:32:11;94273.81;;;35.20
76895;BMP280;65855;42.030;13.078;2023-10-13T13:34:47;94274.13;;;36.42
76895;BMP280;65855;42.030;13.078;2023-10-13T13:37:31;94270.84;;;36.87
76895;BMP280;65855;42.030;13.078;2023-10-13T13:39:57;94271.19;;;36.40
76895;BMP280;65855;42.030;13.078;2023-10-13T13:42:38;94268.81;;;35.53
76895;BMP280;65855;42.030;13.078;2023-10-13T13:45:11;94261.63;;;35.13
76895;BMP280;65855;42.030;13.078;2023-10-13T13:47:37;94268.72;;;33.84
76895;BMP280;65855;42.030;13.078;2023-10-13T13:50:02;94268.38;;;32.80
76895;BMP280;65855;42.030;13.078;2023-10-13T13:52:39;94265.13;;;33.59
76895;BMP280;65855;42.030;13.078;2023-10-13T13:55:11;94263.97;;;35.24
76895;BMP280;65855;42.030;13.078;2023-10-13T13:57:43;94265.91;;;35.35
76895;BMP280;65855;42.030;13.078;2023-10-13T14:00:12;94263.69;;;35.06
76895;BMP280;65855;42.030;13.078;2023-10-13T14:02:56;94257.97;;;35.79
76895;BMP280;65855;42.030;13.078;2023-10-13T14:05:23;94258.53;;;35.99
76895;BMP280;65855;42.030;13.078;2023-10-13T14:07:48;94253.59;;;35.05
76895;BMP280;65855;42.030;13.078;2023-10-13T14:10:18;94258.75;;;35.52
76895;BMP280;65855;42.030;13.078;2023-10-13T14:12:59;94257.91;;;35.27
76895;BMP280;65855;42.030;13.078;2023-10-13T14:15:32;94257.28;;;35.63
76895;BMP280;65855;42.030;13.078;2023-10-13T14:18:05;94252.56;;;35.02
76895;BMP280;65855;42.030;13.078;2023-10-13T14:20:32;94254.31;;;33.57
76895;BMP280;65855;42.030;13.078;2023-10-13T14:23:05;94255.09;;;33.54
76895;BMP280;65855;42.030;13.078;2023-10-13T14:25:32;94255.06;;;34.11
76895;BMP280;65855;42.030;13.078;2023-10-13T14:28:04;94252.81;;;33.56
76895;BMP280;65855;42.030;13.078;2023-10-13T14:30:30;94249.66;;;32.85
76895;BMP280;65855;42.030;13.078;2023-10-13T14:32:56;94251.81;;;29.80
76895;BMP280;65855;42.030;13.078;2023-10-13T14:35:23;94252.97;;;29.69
76895;BMP280;65855;42.030;13.078;2023-10-13T14:37:53;94255.06;;;28.83
76895;BMP280;65855;42.030;13.078;2023-10-13T14:40:18;94250.28;;;26.20
76895;BMP280;65855;42.030;13.078;2023-10-13T14:42:47;94250.78;;;25.64
76895;BMP280;65855;42.030;13.078;2023-10-13T14:45:13;94247.13;;;25.07
76895;BMP280;65855;42.030;13.078;2023-10-13T14:47:42;94250.28;;;25.48
76895;BMP280;65855;42.030;13.078;2023-10-13T14:50:07;94258.28;;;23.38
76895;BMP280;65855;42.030;13.078;2023-10-13T14:52:39;94259.53;;;22.61